Terminal Aerodrome Forecast
Issued by NWS

Home | Current Version | Previous Version | Graphics & Text | Print | Product List | Glossary On
Versions: 1 2 3 4 5 6 7 8 9 10 11 12 13 14 15 16 17
000
FTUS43 KICT 251736
TAFSLN
TAF
KSLN 251736Z 2518/2618 03018G25KT P6SM BKN050 OVC100
     FM252200 02022G32KT 6SM -RA SCT015 OVC025
     FM260400 36013KT P6SM SCT025 BKN100
     FM261200 32004KT P6SM SCT250=

USA.gov is the U.S. government's official web portal to all federal, state and local government web resources and services.